createdAt,value
2018-08-17T00:01:49.699Z,15.17
2018-08-17T00:04:16.748Z,15.73
2018-08-17T00:06:43.897Z,15.80
2018-08-17T00:09:12.252Z,15.70
2018-08-17T00:11:39.432Z,15.23
2018-08-17T00:14:07.234Z,15.77
2018-08-17T00:16:34.336Z,15.93
2018-08-17T00:19:02.151Z,15.80
2018-08-17T00:21:29.236Z,15.90
2018-08-17T00:23:56.675Z,16.07
2018-08-17T00:26:23.770Z,16.33
2018-08-17T00:28:51.097Z,16.27
2018-08-17T00:31:18.196Z,17.43
2018-08-17T00:33:45.228Z,15.67
2018-08-17T00:36:12.746Z,15.80
2018-08-17T00:38:39.743Z,15.63
2018-08-17T00:41:06.986Z,15.53
2018-08-17T00:43:34.444Z,16.47
2018-08-17T00:46:02.080Z,17.13
2018-08-17T00:48:29.147Z,17.47
2018-08-17T00:50:56.608Z,16.97
2018-08-17T00:53:23.913Z,16.77
2018-08-17T00:55:51.193Z,17.00
2018-08-17T00:58:18.252Z,16.80
2018-08-17T01:00:45.249Z,16.83
2018-08-17T01:03:12.240Z,17.87
2018-08-17T01:05:39.649Z,16.33
2018-08-17T01:08:07.304Z,16.50
2018-08-17T01:10:34.553Z,17.17
2018-08-17T01:13:01.785Z,16.37
2018-08-17T01:15:29.056Z,16.90
2018-08-17T01:17:56.255Z,18.03
2018-08-17T01:20:23.552Z,18.03
2018-08-17T01:22:50.985Z,17.40
2018-08-17T01:25:18.019Z,19.23
2018-08-17T01:27:45.020Z,18.80
2018-08-17T01:30:12.488Z,20.10
2018-08-17T01:32:39.548Z,18.07
2018-08-17T01:35:07.661Z,19.50
2018-08-17T01:37:34.938Z,19.10
2018-08-17T01:40:02.267Z,18.00
2018-08-17T01:42:29.357Z,19.90
2018-08-17T01:44:56.354Z,18.27
2018-08-17T01:47:23.444Z,17.80
2018-08-17T01:49:50.543Z,18.53
2018-08-17T01:52:19.132Z,17.97
2018-08-17T01:54:46.505Z,18.93
2018-08-17T01:57:13.539Z,18.47
2018-08-17T01:59:40.583Z,19.70
2018-08-17T02:02:07.883Z,18.00
2018-08-17T02:04:34.920Z,17.17
2018-08-17T02:07:02.230Z,20.00
2018-08-17T02:09:29.224Z,18.73
2018-08-17T02:11:56.304Z,18.50
2018-08-17T02:14:23.411Z,20.70
2018-08-17T02:16:50.670Z,19.97
2018-08-17T02:19:18.000Z,18.13
2018-08-17T02:21:45.438Z,19.43
2018-08-17T02:24:12.831Z,19.60
2018-08-17T02:26:40.104Z,20.33
2018-08-17T02:29:07.675Z,21.27
2018-08-17T02:31:34.857Z,20.20
2018-08-17T02:34:02.172Z,20.97
2018-08-17T02:36:29.188Z,21.30
2018-08-17T02:38:56.629Z,20.47
2018-08-17T02:41:23.713Z,21.07
2018-08-17T02:43:51.791Z,20.67
2018-08-17T02:46:19.469Z,20.57
2018-08-17T02:48:47.408Z,20.70
2018-08-17T02:51:14.405Z,19.50
2018-08-17T02:53:41.410Z,23.20
2018-08-17T02:56:08.418Z,22.97
2018-08-17T02:58:35.515Z,22.00
2018-08-17T03:01:02.568Z,60.07
2018-08-17T03:03:29.565Z,62.77
2018-08-17T03:05:56.578Z,58.47
2018-08-17T03:08:23.588Z,67.83
2018-08-17T03:10:50.556Z,43.70
2018-08-17T03:13:17.563Z,41.70
2018-08-17T03:15:44.612Z,36.00
2018-08-17T03:18:11.632Z,32.07
2018-08-17T03:20:38.664Z,40.30
2018-08-17T03:23:05.711Z,29.57
2018-08-17T03:25:32.762Z,31.77
2018-08-17T03:27:59.787Z,24.77
2018-08-17T03:30:26.941Z,25.97
2018-08-17T03:32:53.931Z,22.50
2018-08-17T03:35:20.920Z,29.83
2018-08-17T03:37:47.915Z,40.23
2018-08-17T03:40:14.929Z,30.57
2018-08-17T03:42:42.062Z,24.50
2018-08-17T03:45:09.111Z,28.93
2018-08-17T03:47:36.282Z,26.73
2018-08-17T03:50:03.563Z,29.00
2018-08-17T03:52:30.616Z,28.90
2018-08-17T03:54:57.644Z,36.03
2018-08-17T03:57:24.640Z,40.67
2018-08-17T03:59:51.627Z,44.07
2018-08-17T04:02:18.723Z,36.50
2018-08-17T04:04:45.743Z,26.70
2018-08-17T04:07:12.778Z,29.50
2018-08-17T04:09:39.873Z,32.43
2018-08-17T04:12:06.897Z,57.93
2018-08-17T04:14:33.946Z,40.23
2018-08-17T04:17:00.963Z,40.37
2018-08-17T04:19:27.993Z,37.97
2018-08-17T04:21:55.127Z,37.57
2018-08-17T04:24:22.239Z,32.67
2018-08-17T04:26:49.234Z,31.10
2018-08-17T04:29:16.243Z,32.47
2018-08-17T04:31:43.471Z,32.80
2018-08-17T04:34:10.489Z,29.77
2018-08-17T04:36:37.576Z,37.27
2018-08-17T04:39:08.825Z,28.80
2018-08-17T04:41:40.369Z,31.67
2018-08-17T04:44:12.235Z,29.17
2018-08-17T04:46:39.216Z,25.43
2018-08-17T04:49:06.238Z,25.97
2018-08-17T04:51:33.237Z,26.17
2018-08-17T04:54:00.236Z,24.83
2018-08-17T04:56:27.227Z,22.70
2018-08-17T05:03:27.181Z,24.30
2018-08-17T05:05:54.326Z,39.80
2018-08-17T05:08:21.376Z,51.20
2018-08-17T05:10:48.384Z,45.93
2018-08-17T05:13:15.456Z,23.07
2018-08-17T05:15:42.871Z,26.77
2018-08-17T05:18:09.847Z,24.47
2018-08-17T05:20:36.933Z,27.80
2018-08-17T05:23:10.865Z,36.90
2018-08-17T05:25:38.167Z,35.70
2018-08-17T05:28:05.265Z,25.40
2018-08-17T05:30:32.599Z,27.10
2018-08-17T05:32:59.688Z,24.73
2018-08-17T05:35:26.707Z,23.90
2018-08-17T05:37:53.679Z,27.80
2018-08-17T05:40:20.735Z,24.30
2018-08-17T05:42:47.809Z,24.63
2018-08-17T05:45:14.796Z,25.30
2018-08-17T05:47:42.011Z,24.93
2018-08-17T05:50:09.413Z,23.77
2018-08-17T05:52:36.588Z,28.10
2018-08-17T05:55:04.112Z,23.80
2018-08-17T05:57:31.235Z,25.50
2018-08-17T05:59:58.241Z,26.07
2018-08-17T06:02:25.233Z,29.50
2018-08-17T06:04:52.535Z,55.40
2018-08-17T06:07:19.856Z,44.30
2018-08-17T06:09:46.858Z,44.90
2018-08-17T06:12:13.927Z,43.23
2018-08-17T06:14:40.996Z,26.00
2018-08-17T06:17:07.999Z,29.93
2018-08-17T06:19:35.419Z,27.27
2018-08-17T06:22:02.838Z,23.80
2018-08-17T06:24:29.837Z,23.73
2018-08-17T06:26:56.883Z,27.70
2018-08-17T06:29:23.892Z,26.20
2018-08-17T06:31:51.137Z,23.77
2018-08-17T06:34:18.199Z,26.80
2018-08-17T06:36:45.176Z,25.23
2018-08-17T06:39:12.243Z,26.50
2018-08-17T06:41:39.615Z,25.90
2018-08-17T06:44:06.697Z,26.80
2018-08-17T06:46:33.894Z,24.77
2018-08-17T06:49:01.023Z,23.47
2018-08-17T06:51:28.191Z,31.53
2018-08-17T06:53:55.462Z,22.70
2018-08-17T06:56:22.624Z,21.07
2018-08-17T06:58:49.751Z,22.20
2018-08-17T07:01:16.737Z,20.83
2018-08-17T07:03:43.852Z,16.90
2018-08-17T07:06:10.869Z,17.67
2018-08-17T07:08:37.870Z,17.70
2018-08-17T07:11:04.983Z,15.30
2018-08-17T07:13:32.080Z,14.03
2018-08-17T07:15:59.152Z,14.13
2018-08-17T07:18:26.223Z,13.23
2018-08-17T07:20:53.267Z,13.83
2018-08-17T07:23:20.340Z,12.30
2018-08-17T07:25:47.415Z,11.70
2018-08-17T07:28:14.592Z,11.33
2018-08-17T07:30:41.572Z,13.63
2018-08-17T07:33:08.639Z,15.67
2018-08-17T07:35:35.669Z,14.50
2018-08-17T07:38:02.831Z,12.80
2018-08-17T07:40:29.907Z,14.70
2018-08-17T07:42:57.084Z,32.17
2018-08-17T07:45:24.209Z,30.07
2018-08-17T07:47:51.250Z,29.47
2018-08-17T07:50:19.708Z,14.47
2018-08-17T07:52:46.726Z,14.60
2018-08-17T07:55:14.016Z,15.30
2018-08-17T07:57:40.993Z,12.53
2018-08-17T08:00:07.998Z,39.50
2018-08-17T08:02:35.844Z,15.97
2018-08-17T08:05:03.195Z,17.30
2018-08-17T08:07:30.212Z,19.73
2018-08-17T08:09:57.261Z,15.70
2018-08-17T08:12:24.279Z,29.40
2018-08-17T08:14:51.345Z,27.93
2018-08-17T08:17:18.328Z,19.00
2018-08-17T08:19:55.744Z,12.33
2018-08-17T08:22:22.747Z,18.73
2018-08-17T08:24:49.737Z,30.53
2018-08-17T08:27:16.732Z,24.97
2018-08-17T08:29:43.792Z,9.27
2018-08-17T08:32:10.815Z,10.73
2018-08-17T08:34:37.821Z,6.93
2018-08-17T08:37:06.408Z,7.17
2018-08-17T08:39:33.834Z,8.30
2018-08-17T08:42:03.943Z,10.50
2018-08-17T08:44:31.041Z,5.20
2018-08-17T08:46:58.576Z,5.33
2018-08-17T08:49:25.983Z,5.17
2018-08-17T08:51:53.094Z,20.10
2018-08-17T08:54:21.497Z,8.50
2018-08-17T08:56:49.122Z,16.57
2018-08-17T08:59:17.433Z,6.50
2018-08-17T09:01:46.155Z,6.33
2018-08-17T09:04:14.140Z,4.67
2018-08-17T09:06:44.070Z,6.07
2018-08-17T09:09:11.991Z,7.93
2018-08-17T09:11:40.135Z,8.60
2018-08-17T09:14:09.053Z,6.93
2018-08-17T09:16:36.236Z,3.87
2018-08-17T09:19:03.540Z,27.33
2018-08-17T09:21:30.546Z,27.67
2018-08-17T09:23:57.549Z,22.90
2018-08-17T09:26:24.617Z,11.63
2018-08-17T09:28:58.488Z,5.67
2018-08-17T09:31:25.587Z,8.97
2018-08-17T09:33:52.806Z,5.63
2018-08-17T09:36:20.273Z,7.80
2018-08-17T09:38:47.480Z,7.67
2018-08-17T09:41:14.478Z,4.80
2018-08-17T09:43:41.482Z,6.07
2018-08-17T09:46:09.644Z,3.33
2018-08-17T09:48:36.681Z,3.40
2018-08-17T09:51:04.239Z,8.43
2018-08-17T09:53:31.256Z,8.80
2018-08-17T09:55:58.282Z,4.33
2018-08-17T09:58:25.279Z,7.23
2018-08-17T10:00:58.155Z,3.60
2018-08-17T10:03:31.033Z,4.47
2018-08-17T10:06:04.040Z,5.03
2018-08-17T10:08:32.739Z,5.43
2018-08-17T10:10:59.958Z,4.20
2018-08-17T10:13:27.029Z,4.00
2018-08-17T10:15:54.044Z,4.73
2018-08-17T10:18:23.359Z,4.27
2018-08-17T10:20:50.696Z,3.33
2018-08-17T10:23:23.513Z,3.97
2018-08-17T10:25:50.600Z,3.30
2018-08-17T10:28:17.827Z,3.13
2018-08-17T10:30:44.904Z,2.63
2018-08-17T10:33:11.972Z,2.50
2018-08-17T10:35:38.973Z,2.77
2018-08-17T10:38:06.889Z,2.87
2018-08-17T10:40:33.960Z,3.90
2018-08-17T10:43:02.219Z,3.90
2018-08-17T10:45:29.461Z,3.00
2018-08-17T10:47:56.908Z,5.40
2018-08-17T10:50:25.409Z,3.90
2018-08-17T10:52:53.592Z,4.10
2018-08-17T10:55:21.750Z,3.50
2018-08-17T10:57:48.767Z,3.37
2018-08-17T11:00:17.950Z,3.67
2018-08-17T11:02:45.261Z,3.57
2018-08-17T11:05:13.637Z,4.93
2018-08-17T11:07:40.723Z,3.63
2018-08-17T11:10:09.379Z,3.77
2018-08-17T11:12:37.416Z,4.40
2018-08-17T11:15:04.885Z,4.57
2018-08-17T11:17:31.913Z,4.23
2018-08-17T11:19:58.904Z,4.63
2018-08-17T11:22:25.992Z,5.60
2018-08-17T11:24:52.987Z,3.80
2018-08-17T11:27:19.980Z,4.47
2018-08-17T11:29:46.985Z,4.90
2018-08-17T11:32:14.181Z,4.83
2018-08-17T11:34:41.183Z,5.80
2018-08-17T11:37:08.192Z,4.73
2018-08-17T11:39:35.524Z,5.47
2018-08-17T11:42:02.556Z,5.17
2018-08-17T11:44:29.565Z,4.90
2018-08-17T11:46:59.290Z,5.53
2018-08-17T11:49:26.604Z,8.10
2018-08-17T11:51:53.596Z,5.87
2018-08-17T11:54:20.691Z,20.13
2018-08-17T11:56:47.682Z,41.00
2018-08-17T11:59:14.663Z,22.73
2018-08-17T12:01:41.664Z,12.20
2018-08-17T12:04:08.740Z,12.60
2018-08-17T12:06:35.737Z,10.43
2018-08-17T12:09:02.856Z,9.20
2018-08-17T12:11:29.855Z,9.13
2018-08-17T12:13:57.187Z,6.10
2018-08-17T12:16:24.200Z,7.60
2018-08-17T12:18:51.512Z,6.13
2018-08-17T12:21:18.497Z,15.20
2018-08-17T12:23:45.582Z,6.37
2018-08-17T12:26:12.624Z,12.90
2018-08-17T12:28:39.593Z,8.80
2018-08-17T12:31:06.592Z,4.70
2018-08-17T12:33:33.656Z,5.50
2018-08-17T12:36:00.631Z,4.90
2018-08-17T12:38:28.063Z,4.87
2018-08-17T12:40:56.242Z,8.90
2018-08-17T12:43:38.587Z,5.80
2018-08-17T12:46:05.690Z,7.93
2018-08-17T12:48:32.709Z,24.73
2018-08-17T12:51:03.487Z,7.07
2018-08-17T12:53:30.796Z,29.70
2018-08-17T12:55:57.795Z,25.83
2018-08-17T12:58:24.788Z,7.43
2018-08-17T13:00:51.782Z,13.70
2018-08-17T13:03:18.918Z,10.10
2018-08-17T13:05:45.981Z,11.57
2018-08-17T13:08:13.072Z,10.73
2018-08-17T13:10:40.057Z,18.10
2018-08-17T13:13:08.412Z,9.03
2018-08-17T13:15:36.087Z,12.13
2018-08-17T13:18:11.634Z,8.50
2018-08-17T13:20:38.773Z,10.87
2018-08-17T13:23:05.790Z,9.53
2018-08-17T13:25:32.937Z,13.13
2018-08-17T13:28:00.246Z,9.30
2018-08-17T13:30:27.389Z,8.43
2018-08-17T13:32:54.426Z,11.80
2018-08-17T13:35:21.435Z,9.03
2018-08-17T13:37:48.507Z,10.97
2018-08-17T13:40:15.517Z,9.53
2018-08-17T13:42:42.512Z,10.63
2018-08-17T13:45:09.886Z,9.87
2018-08-17T13:47:36.968Z,8.93
2018-08-17T13:50:04.584Z,10.30
2018-08-17T13:52:31.609Z,8.80
2018-08-17T13:54:58.778Z,9.53
2018-08-17T13:57:26.058Z,9.40
2018-08-17T13:59:53.134Z,10.43
2018-08-17T14:02:20.142Z,19.40
2018-08-17T14:04:47.155Z,10.83
2018-08-17T14:07:14.139Z,10.53
2018-08-17T14:09:41.171Z,9.80
2018-08-17T14:12:08.604Z,8.40
2018-08-17T14:14:35.636Z,10.83
2018-08-17T14:17:02.739Z,9.60
2018-08-17T14:19:29.727Z,10.37
2018-08-17T14:21:56.796Z,8.43
2018-08-17T14:24:24.080Z,10.03
2018-08-17T14:26:51.076Z,10.13
2018-08-17T14:29:18.071Z,8.97
2018-08-17T14:31:45.175Z,9.63
2018-08-17T14:34:12.187Z,8.57
2018-08-17T14:36:39.212Z,9.47
2018-08-17T14:39:06.376Z,9.70
2018-08-17T14:42:07.408Z,10.20
2018-08-17T14:44:34.478Z,8.60
2018-08-17T14:47:01.525Z,8.00
2018-08-17T14:49:28.836Z,8.60
2018-08-17T14:51:56.117Z,10.20
2018-08-17T14:54:23.057Z,8.47
2018-08-17T14:56:50.041Z,8.20
2018-08-17T14:59:17.640Z,7.50
2018-08-17T15:01:44.876Z,8.10
2018-08-17T15:04:11.871Z,5.90
2018-08-17T15:06:38.903Z,4.23
2018-08-17T15:09:11.357Z,4.30
2018-08-17T15:11:39.344Z,4.90
2018-08-17T15:14:06.403Z,3.63
2018-08-17T15:16:33.633Z,4.30
2018-08-17T15:19:00.659Z,4.20
2018-08-17T15:21:27.647Z,4.50
2018-08-17T15:23:54.619Z,9.00
2018-08-17T15:26:22.504Z,3.83
2018-08-17T15:28:49.560Z,4.50
2018-08-17T15:31:16.669Z,4.17
2018-08-17T15:33:43.915Z,13.33
2018-08-17T15:36:11.477Z,4.67
2018-08-17T15:38:38.484Z,7.97
2018-08-17T15:41:05.525Z,8.60
2018-08-17T15:43:32.591Z,8.20
2018-08-17T15:45:59.615Z,47.57
2018-08-17T15:48:26.620Z,3.30
2018-08-17T15:50:53.609Z,38.97
2018-08-17T15:53:20.623Z,3.13
2018-08-17T15:55:47.772Z,9.40
2018-08-17T15:58:14.800Z,3.90
2018-08-17T16:00:41.820Z,5.00
2018-08-17T16:03:08.904Z,6.93
2018-08-17T16:05:35.912Z,3.40
2018-08-17T16:08:02.968Z,3.40
2018-08-17T16:10:30.261Z,3.13
2018-08-17T16:12:57.140Z,3.17
2018-08-17T16:15:24.144Z,6.17
2018-08-17T16:17:51.159Z,22.93
2018-08-17T16:20:18.182Z,8.27
2018-08-17T16:22:45.183Z,6.43
2018-08-17T16:25:12.692Z,4.97
2018-08-17T16:27:40.457Z,4.20
2018-08-17T16:30:09.357Z,8.97
2018-08-17T16:32:36.355Z,5.00
2018-08-17T16:35:03.660Z,3.47
2018-08-17T16:37:31.100Z,4.77
2018-08-17T16:39:58.056Z,2.87
2018-08-17T16:42:30.690Z,12.10
2018-08-17T16:44:57.738Z,2.60
2018-08-17T16:47:25.025Z,4.87
2018-08-17T16:49:52.357Z,7.17
2018-08-17T16:52:19.511Z,4.30
2018-08-17T16:54:46.508Z,4.00
2018-08-17T16:57:13.484Z,8.10
2018-08-17T16:59:40.598Z,2.80
2018-08-17T17:02:07.585Z,23.37
2018-08-17T17:04:39.248Z,2.37
2018-08-17T17:07:06.527Z,2.43
2018-08-17T17:09:33.554Z,7.83
2018-08-17T17:12:00.635Z,4.33
2018-08-17T17:14:27.967Z,7.47
2018-08-17T17:16:55.053Z,4.33
2018-08-17T17:19:22.099Z,36.53
2018-08-17T17:21:50.850Z,10.47
2018-08-17T17:24:18.446Z,61.73
2018-08-17T17:26:45.539Z,6.63
2018-08-17T17:29:12.632Z,5.77
2018-08-17T17:31:40.160Z,8.30
2018-08-17T17:34:07.431Z,4.63
2018-08-17T17:36:34.496Z,7.23
2018-08-17T17:39:01.483Z,2.00
2018-08-17T17:41:28.476Z,5.53
2018-08-17T17:43:55.808Z,7.73
2018-08-17T17:46:22.918Z,2.90
2018-08-17T17:48:50.351Z,3.87
2018-08-17T17:51:17.350Z,2.90
2018-08-17T17:53:44.350Z,2.60
2018-08-17T17:56:11.480Z,3.60
2018-08-17T17:58:38.464Z,2.90
2018-08-17T18:01:06.571Z,3.50
2018-08-17T18:03:33.599Z,2.50
2018-08-17T18:06:02.931Z,1.70
2018-08-17T18:08:30.447Z,1.90
2018-08-17T18:10:57.544Z,2.40
2018-08-17T18:13:24.999Z,10.60
2018-08-17T18:15:52.120Z,4.30
2018-08-17T18:18:19.134Z,6.17
2018-08-17T18:20:46.203Z,31.30
2018-08-17T18:23:13.226Z,3.20
2018-08-17T18:25:40.488Z,8.23
2018-08-17T18:28:07.875Z,5.53
2018-08-17T18:30:35.025Z,3.30
2018-08-17T18:33:02.039Z,2.33
2018-08-17T18:35:29.192Z,2.17
2018-08-17T18:37:56.306Z,2.70
2018-08-17T18:40:23.354Z,3.00
2018-08-17T18:42:50.367Z,2.40
2018-08-17T18:45:17.363Z,2.83
2018-08-17T18:47:44.373Z,2.30
2018-08-17T18:50:11.372Z,2.30
2018-08-17T18:52:38.417Z,2.53
2018-08-17T18:55:05.458Z,3.60
2018-08-17T18:57:32.540Z,2.07
2018-08-17T19:00:00.328Z,10.80
2018-08-17T19:02:27.424Z,32.13
2018-08-17T19:04:54.420Z,24.87
2018-08-17T19:07:22.075Z,17.50
2018-08-17T19:09:49.339Z,15.80
2018-08-17T19:12:16.324Z,5.17
2018-08-17T19:14:46.970Z,6.00
2018-08-17T19:17:19.885Z,3.50
2018-08-17T19:19:47.136Z,3.20
2018-08-17T19:22:14.361Z,3.47
2018-08-17T19:24:41.447Z,3.20
2018-08-17T19:27:08.696Z,4.40
2018-08-17T19:29:36.127Z,3.00
2018-08-17T19:32:03.581Z,3.80
2018-08-17T19:34:31.150Z,4.33
2018-08-17T19:37:00.214Z,9.33
2018-08-17T19:39:32.873Z,14.50
2018-08-17T19:41:59.968Z,39.20
2018-08-17T19:44:27.355Z,8.00
2018-08-17T19:46:54.566Z,9.47
2018-08-17T19:49:21.547Z,8.20
2018-08-17T19:51:48.633Z,8.30
2018-08-17T19:54:15.647Z,9.63
2018-08-17T19:56:42.683Z,7.43
2018-08-17T19:59:09.715Z,6.33
2018-08-17T20:01:36.898Z,13.03
2018-08-17T20:04:04.193Z,13.60
2018-08-17T20:06:31.184Z,19.80
2018-08-17T20:08:58.216Z,10.03
2018-08-17T20:11:25.321Z,8.30
2018-08-17T20:13:52.352Z,7.47
2018-08-17T20:16:24.831Z,7.50
2018-08-17T20:18:52.187Z,6.60
2018-08-17T20:21:22.187Z,4.80
2018-08-17T20:23:49.557Z,6.60
2018-08-17T20:26:16.780Z,6.67
2018-08-17T20:28:43.795Z,5.80
2018-08-17T20:31:11.095Z,15.23
2018-08-17T20:33:38.311Z,6.17
2018-08-17T20:36:05.364Z,6.83
2018-08-17T20:38:32.543Z,6.30
2018-08-17T20:41:00.580Z,7.50
2018-08-17T20:43:27.789Z,7.57
2018-08-17T20:45:54.842Z,6.67
2018-08-17T20:48:22.146Z,6.40
2018-08-17T20:50:49.463Z,10.23
2018-08-17T20:53:18.828Z,11.00
2018-08-17T20:55:46.533Z,6.90
2018-08-17T20:58:13.805Z,16.93
2018-08-17T21:00:41.394Z,6.13
2018-08-17T21:03:08.490Z,7.03
2018-08-17T21:05:35.826Z,5.73
2018-08-17T21:08:03.222Z,6.73
2018-08-17T21:10:30.335Z,5.00
2018-08-17T21:12:57.647Z,5.40
2018-08-17T21:15:25.152Z,12.40
2018-08-17T21:17:52.420Z,21.60
2018-08-17T21:20:19.862Z,6.90
2018-08-17T21:22:47.215Z,12.17
2018-08-17T21:25:15.091Z,5.80
2018-08-17T21:27:42.342Z,5.70
2018-08-17T21:30:10.052Z,10.73
2018-08-17T21:32:37.442Z,8.63
2018-08-17T21:35:05.556Z,7.70
2018-08-17T21:37:32.868Z,6.50
2018-08-17T21:40:00.065Z,8.83
2018-08-17T21:42:27.423Z,9.37
2018-08-17T21:44:54.841Z,8.40
2018-08-17T21:47:22.042Z,6.70
2018-08-17T21:49:49.279Z,9.80
2018-08-17T21:52:22.621Z,7.07
2018-08-17T21:54:49.705Z,8.60
2018-08-17T21:57:17.300Z,15.50
2018-08-17T21:59:50.767Z,12.13
2018-08-17T22:02:18.778Z,7.37
2018-08-17T22:04:45.960Z,6.87
2018-08-17T22:07:18.222Z,7.50
2018-08-17T22:09:45.504Z,10.47
2018-08-17T22:12:13.284Z,6.97
2018-08-17T22:14:40.643Z,7.00
2018-08-17T22:17:18.107Z,6.77
2018-08-17T22:19:46.240Z,7.40
2018-08-17T22:22:14.538Z,61.07
2018-08-17T22:24:50.962Z,7.53
2018-08-17T22:27:18.978Z,9.37
2018-08-17T22:29:48.032Z,14.63
2018-08-17T22:32:15.034Z,19.20
2018-08-17T22:34:42.543Z,23.07
2018-08-17T22:37:09.580Z,27.80
2018-08-17T22:39:37.221Z,9.40
2018-08-17T22:42:04.500Z,30.17
2018-08-17T22:44:32.017Z,9.77
2018-08-17T22:47:28.443Z,11.67
2018-08-17T22:49:56.307Z,17.67
2018-08-17T22:52:23.708Z,17.07
2018-08-17T22:54:54.625Z,10.37
2018-08-17T22:57:21.647Z,12.37
2018-08-17T23:00:06.160Z,13.80
2018-08-17T23:02:33.153Z,11.23
2018-08-17T23:05:00.220Z,7.03
2018-08-17T23:07:27.298Z,8.83
2018-08-17T23:09:54.344Z,13.00
2018-08-17T23:12:21.360Z,11.50
2018-08-17T23:14:48.525Z,9.60
2018-08-17T23:17:15.523Z,8.70
2018-08-17T23:19:42.546Z,8.57
2018-08-17T23:22:09.556Z,8.17
2018-08-17T23:24:36.568Z,10.20
2018-08-17T23:27:03.599Z,9.10
2018-08-17T23:29:30.568Z,10.53
2018-08-17T23:31:57.626Z,8.23
2018-08-17T23:34:24.631Z,9.37
2018-08-17T23:36:51.600Z,12.63
2018-08-17T23:39:18.629Z,10.93
2018-08-17T23:41:45.622Z,14.40
2018-08-17T23:44:12.618Z,23.73
2018-08-17T23:46:39.663Z,30.80
2018-08-17T23:49:06.684Z,26.10
2018-08-17T23:51:33.781Z,34.77
2018-08-17T23:54:00.759Z,27.23
2018-08-17T23:56:27.771Z,26.50
2018-08-17T23:58:54.767Z,22.83
